Home > Products > Valid Products > TAF

000
FTUS43 KDDC 301723
TAFHYS
TAF
KHYS 301723Z 3018/3118 19014KT P6SM OVC035
     FM310200 16012KT 5SM -RA OVC015
     FM310900 14010KT 1SM -RA BR OVC007=



000
FTUS43 KDDC 301723
TAFDDC
TAF
KDDC 301723Z 3018/3118 17014KT P6SM OVC035
     FM310200 16012KT 5SM -RA OVC015
     FM310900 14010KT 1SM -RA BR OVC007=



000
FTUS43 KDDC 301723
TAFGCK
TAF
KGCK 301723Z 3018/3118 17014KT P6SM OVC035
     FM310200 16012KT 5SM -RA OVC015
     FM310900 14010KT 1SM -RA BR OVC007=



000
FTUS43 KDDC 301723
TAFGCK
TAF
KGCK 301723Z 3018/3118 17014KT P6SM OVC035
     FM310200 16012KT 5SM -RA OVC015
     FM310900 14010KT 1SM -RA BR OVC007=



000
FTUS43 KDDC 301723
TAFDDC
TAF
KDDC 301723Z 3018/3118 17014KT P6SM OVC035
     FM310200 16012KT 5SM -RA OVC015
     FM310900 14010KT 1SM -RA BR OVC007=



000
FTUS43 KDDC 301723
TAFHYS
TAF
KHYS 301723Z 3018/3118 19014KT P6SM OVC035
     FM310200 16012KT 5SM -RA OVC015
     FM310900 14010KT 1SM -RA BR OVC007=



000
FTUS43 KDDC 301139
TAFHYS
TAF
KHYS 301139Z 3012/3112 28003KT P6SM SKC
     FM301600 19013G20KT P6SM OVC150=



000
FTUS43 KDDC 301139
TAFDDC
TAF
KDDC 301139Z 3012/3112 19005KT P6SM SKC
     FM301600 18014G22KT P6SM OVC100=



000
FTUS43 KDDC 301139
TAFGCK
TAF
KGCK 301139Z 3012/3112 20006KT P6SM SKC
     FM301700 19015G23KT P6SM OVC100=



000
FTUS43 KDDC 301139
TAFDDC
TAF
KDDC 301139Z 3012/3112 19005KT P6SM SKC
     FM301600 18014G22KT P6SM OVC100=



000
FTUS43 KDDC 301139
TAFGCK
TAF
KGCK 301139Z 3012/3112 20006KT P6SM SKC
     FM301700 19015G23KT P6SM OVC100=



000
FTUS43 KDDC 301139
TAFHYS
TAF
KHYS 301139Z 3012/3112 28003KT P6SM SKC
     FM301600 19013G20KT P6SM OVC150=



000
FTUS43 KDDC 300540
TAFGCK
TAF
KGCK 300540Z 3006/3106 VRB06KT P6SM OVC250
     FM301200 19008KT P6SM OVC150
     FM301700 19015G23KT P6SM OVC100=



000
FTUS43 KDDC 300540
TAFGCK
TAF
KGCK 300540Z 3006/3106 VRB06KT P6SM OVC250
     FM301200 19008KT P6SM OVC150
     FM301700 19015G23KT P6SM OVC100=



000
FTUS43 KDDC 300540
TAFHYS
TAF
KHYS 300540Z 3006/3106 VRB05KT P6SM SCT250
     FM301600 19013G20KT P6SM OVC150=



000
FTUS43 KDDC 300540
TAFDDC
TAF
KDDC 300540Z 3006/3106 VRB06KT P6SM OVC250
     FM301000 18008KT P6SM OVC180
     FM301600 18014G22KT P6SM OVC100=



000
FTUS43 KDDC 300540
TAFDDC
TAF
KDDC 300540Z 3006/3106 VRB06KT P6SM OVC250
     FM301000 18008KT P6SM OVC180
     FM301600 18014G22KT P6SM OVC100=



000
FTUS43 KDDC 300540
TAFHYS
TAF
KHYS 300540Z 3006/3106 VRB05KT P6SM SCT250
     FM301600 19013G20KT P6SM OVC150=



000
FTUS43 KDDC 292320
TAFGCK
TAF
KGCK 292320Z 3000/3024 VRB06KT P6SM OVC250
     FM300900 19008KT P6SM OVC150=



000
FTUS43 KDDC 292320
TAFDDC
TAF
KDDC 292320Z 3000/3024 VRB06KT P6SM OVC250
     FM300900 19006KT P6SM OVC180=



000
FTUS43 KDDC 292320
TAFDDC
TAF
KDDC 292320Z 3000/3024 VRB06KT P6SM OVC250
     FM300900 19006KT P6SM OVC180=



000
FTUS43 KDDC 292320
TAFHYS
TAF
KHYS 292320Z 3000/3024 VRB05KT P6SM SCT250
     FM300900 17004KT P6SM OVC200=



000
FTUS43 KDDC 292320
TAFHYS
TAF
KHYS 292320Z 3000/3024 VRB05KT P6SM SCT250
     FM300900 17004KT P6SM OVC200=



000
FTUS43 KDDC 292320
TAFGCK
TAF
KGCK 292320Z 3000/3024 VRB06KT P6SM OVC250
     FM300900 19008KT P6SM OVC150=



000
FTUS43 KDDC 291720
TAFDDC
TAF
KDDC 291720Z 2918/3018 35017G26KT P6SM SCT200
     FM292300 03010KT P6SM SCT200=



000
FTUS43 KDDC 291720
TAFGCK
TAF
KGCK 291720Z 2918/3018 36017G26KT P6SM SCT200
     FM292200 03010KT P6SM SCT150=



000
FTUS43 KDDC 291720
TAFHYS
TAF
KHYS 291720Z 2918/3018 35017G25KT P6SM SCT200
     FM292200 03010KT P6SM SCT200=



000
FTUS43 KDDC 291720
TAFHYS
TAF
KHYS 291720Z 2918/3018 35017G25KT P6SM SCT200
     FM292200 03010KT P6SM SCT200=



000
FTUS43 KDDC 291720
TAFGCK
TAF
KGCK 291720Z 2918/3018 36017G26KT P6SM SCT200
     FM292200 03010KT P6SM SCT150=



000
FTUS43 KDDC 291720
TAFDDC
TAF
KDDC 291720Z 2918/3018 35017G26KT P6SM SCT200
     FM292300 03010KT P6SM SCT200=



000
FTUS43 KDDC 291126
TAFGCK
TAF
KGCK 291126Z 2912/3012 36015G20KT P6SM SKC
     FM291400 36017G25KT P6SM FEW150
     FM292100 01011KT P6SM SCT150=



000
FTUS43 KDDC 291126
TAFDDC
TAF
KDDC 291126Z 2912/3012 35018G22KT P6SM SKC
     FM291400 36019G25KT P6SM SCT200
     FM292200 01011KT P6SM SCT200=



000
FTUS43 KDDC 291126
TAFHYS
TAF
KHYS 291126Z 2912/3012 35016G23KT P6SM SKC
     FM291500 35018G25KT P6SM BKN200
     FM292100 36011KT P6SM SCT200=



000
FTUS43 KDDC 291126
TAFDDC
TAF
KDDC 291126Z 2912/3012 35018G22KT P6SM SKC
     FM291400 36019G25KT P6SM SCT200
     FM292200 01011KT P6SM SCT200=



000
FTUS43 KDDC 291126
TAFHYS
TAF
KHYS 291126Z 2912/3012 35016G23KT P6SM SKC
     FM291500 35018G25KT P6SM BKN200
     FM292100 36011KT P6SM SCT200=



000
FTUS43 KDDC 291126
TAFGCK
TAF
KGCK 291126Z 2912/3012 36015G20KT P6SM SKC
     FM291400 36017G25KT P6SM FEW150
     FM292100 01011KT P6SM SCT150=



000
FTUS43 KDDC 290520
TAFDDC
TAF
KDDC 290520Z 2906/3006 35015G23KT P6SM SKC
     FM291400 36019G25KT P6SM SKC=



000
FTUS43 KDDC 290520
TAFHYS
TAF
KHYS 290520Z 2906/3006 31014KT P6SM SKC
     FM291400 35015G25KT P6SM SCT200=



000
FTUS43 KDDC 290520
TAFGCK
TAF
KGCK 290520Z 2906/3006 31015G23KT P6SM SKC
     FM291400 36019G25KT P6SM SKC=



000
FTUS43 KDDC 290520
TAFGCK
TAF
KGCK 290520Z 2906/3006 31015G23KT P6SM SKC
     FM291400 36019G25KT P6SM SKC=



000
FTUS43 KDDC 282342
TAFHYS
TAF
KHYS 282342Z 2900/2924 31012KT P6SM FEW200
     FM291200 36015G25KT P6SM SCT200=



000
FTUS43 KDDC 282342
TAFDDC
TAF
KDDC 282342Z 2900/2924 31012KT P6SM FEW200
     FM291200 36015G25KT P6SM SCT200=



000
FTUS43 KDDC 282342
TAFGCK
TAF
KGCK 282342Z 2900/2924 31012KT P6SM FEW200
     FM291200 36015G25KT P6SM SCT200=



000
FTUS43 KDDC 282342
TAFDDC
TAF
KDDC 282342Z 2900/2924 31012KT P6SM FEW200
     FM291200 36015G25KT P6SM SCT200=



000
FTUS43 KDDC 282342
TAFHYS
TAF
KHYS 282342Z 2900/2924 31012KT P6SM FEW200
     FM291200 36015G25KT P6SM SCT200=



000
FTUS43 KDDC 282342
TAFGCK
TAF
KGCK 282342Z 2900/2924 31012KT P6SM FEW200
     FM291200 36015G25KT P6SM SCT200=



000
FTUS43 KDDC 281720
TAFDDC
TAF
KDDC 281720Z 2818/2918 33019G28KT P6SM BKN250
     FM290100 31015KT P6SM SCT250
     FM291200 36020G28KT P6SM SKC=



000
FTUS43 KDDC 281720
TAFHYS
TAF
KHYS 281720Z 2818/2918 33019G28KT P6SM BKN250
     FM290100 31015KT P6SM SCT250
     FM291200 36020G28KT P6SM SKC=



000
FTUS43 KDDC 281720
TAFGCK
TAF
KGCK 281720Z 2818/2918 33019G28KT P6SM BKN250
     FM290100 31015KT P6SM SCT250
     FM291200 36020G28KT P6SM SKC=



000
FTUS43 KDDC 281720
TAFHYS
TAF
KHYS 281720Z 2818/2918 33019G28KT P6SM BKN250
     FM290100 31015KT P6SM SCT250
     FM291200 36020G28KT P6SM SKC=



000
FTUS43 KDDC 281720
TAFDDC
TAF
KDDC 281720Z 2818/2918 33019G28KT P6SM BKN250
     FM290100 31015KT P6SM SCT250
     FM291200 36020G28KT P6SM SKC=



000
FTUS43 KDDC 281720
TAFGCK
TAF
KGCK 281720Z 2818/2918 33019G28KT P6SM BKN250
     FM290100 31015KT P6SM SCT250
     FM291200 36020G28KT P6SM SKC=



000
FTUS43 KDDC 281144
TAFHYS
TAF
KHYS 281144Z 2812/2912 26007KT P6SM SKC
     FM281600 31018G27KT P6SM SKC
     FM290000 31013KT P6SM SKC=



000
FTUS43 KDDC 281144
TAFDDC
TAF
KDDC 281144Z 2812/2912 23012KT P6SM SKC
     FM281600 32019G28KT P6SM SKC
     FM290000 31013KT P6SM SKC=



000
FTUS43 KDDC 281144
TAFGCK
TAF
KGCK 281144Z 2812/2912 24010KT P6SM SKC
     FM281600 31019G27KT P6SM SKC
     FM290000 31013KT P6SM SKC=



000
FTUS43 KDDC 281144
TAFDDC
TAF
KDDC 281144Z 2812/2912 23012KT P6SM SKC
     FM281600 32019G28KT P6SM SKC
     FM290000 31013KT P6SM SKC=



000
FTUS43 KDDC 281144
TAFGCK
TAF
KGCK 281144Z 2812/2912 24010KT P6SM SKC
     FM281600 31019G27KT P6SM SKC
     FM290000 31013KT P6SM SKC=



000
FTUS43 KDDC 281144
TAFHYS
TAF
KHYS 281144Z 2812/2912 26007KT P6SM SKC
     FM281600 31018G27KT P6SM SKC
     FM290000 31013KT P6SM SKC=



000
FTUS43 KDDC 280529
TAFHYS
TAF
KHYS 280529Z 2806/2906 23008KT P6SM FEW200
     FM281400 35018G28KT P6SM SCT200=



000
FTUS43 KDDC 280529
TAFGCK
TAF
KGCK 280529Z 2806/2906 24007KT P6SM FEW200
     FM281300 35018G28KT P6SM SCT250=



000
FTUS43 KDDC 280529
TAFDDC
TAF
KDDC 280529Z 2806/2906 23008KT P6SM FEW200
     FM281500 35018G28KT P6SM SCT250=



000
FTUS43 KDDC 280529
TAFGCK
TAF
KGCK 280529Z 2806/2906 24007KT P6SM FEW200
     FM281300 35018G28KT P6SM SCT250=



000
FTUS43 KDDC 280529
TAFDDC
TAF
KDDC 280529Z 2806/2906 23008KT P6SM FEW200
     FM281500 35018G28KT P6SM SCT250=



000
FTUS43 KDDC 280529
TAFHYS
TAF
KHYS 280529Z 2806/2906 23008KT P6SM FEW200
     FM281400 35018G28KT P6SM SCT200=



000
FTUS43 KDDC 272347
TAFDDC
TAF
KDDC 272347Z 2800/2824 23008KT P6SM FEW200
     FM281500 35015G25KT P6SM SCT250=



000
FTUS43 KDDC 272347
TAFGCK
TAF
KGCK 272347Z 2800/2824 23007KT P6SM FEW200
     FM281300 35015G25KT P6SM SCT250=



000
FTUS43 KDDC 272347
TAFHYS
TAF
KHYS 272347Z 2800/2824 23007KT P6SM FEW200
     FM281400 35015G25KT P6SM SCT200=



000
FTUS43 KDDC 272347
TAFDDC
TAF
KDDC 272347Z 2800/2824 23008KT P6SM FEW200
     FM281500 35015G25KT P6SM SCT250=



000
FTUS43 KDDC 272347
TAFGCK
TAF
KGCK 272347Z 2800/2824 23007KT P6SM FEW200
     FM281300 35015G25KT P6SM SCT250=



000
FTUS43 KDDC 272347
TAFHYS
TAF
KHYS 272347Z 2800/2824 23007KT P6SM FEW200
     FM281400 35015G25KT P6SM SCT200=



    US Dept of Commerce
    National Oceanic and Atmospheric Administration
    National Weather Service
    1325 East West Highway
    Silver Spring, MD 20910
    Page Author: NWS Internet Services Team
Disclaimer
Information Quality
Credits
Glossary
Privacy Policy
Freedom of Information Act (FOIA)
About Us
Career Opportunities